createdAt,value
2023-03-24T00:02:28.855Z,58.57
2023-03-24T00:04:58.757Z,58.62
2023-03-24T00:07:25.830Z,60.00
2023-03-24T00:09:54.018Z,60.46
2023-03-24T00:12:20.674Z,60.44
2023-03-24T00:14:47.394Z,60.31
2023-03-24T00:17:13.967Z,59.72
2023-03-24T00:19:41.003Z,60.02
2023-03-24T00:22:09.080Z,60.39
2023-03-24T00:24:36.037Z,59.75
2023-03-24T00:27:03.475Z,59.67
2023-03-24T00:29:30.048Z,58.96
2023-03-24T00:31:56.739Z,59.09
2023-03-24T00:34:23.528Z,58.34
2023-03-24T00:36:51.687Z,59.15
2023-03-24T00:39:19.792Z,59.71
2023-03-24T00:41:48.052Z,59.27
2023-03-24T00:44:19.252Z,60.19
2023-03-24T00:46:55.804Z,60.09
2023-03-24T00:49:45.158Z,60.25
2023-03-24T00:52:20.986Z,60.26
2023-03-24T00:54:49.436Z,60.85
2023-03-24T00:57:26.135Z,60.70
2023-03-24T00:59:54.532Z,60.52
2023-03-24T01:02:24.762Z,60.45
2023-03-24T01:05:02.244Z,60.95
2023-03-24T01:07:30.268Z,60.95
2023-03-24T01:09:58.116Z,61.37
2023-03-24T01:12:31.231Z,60.14
2023-03-24T01:15:00.084Z,60.82
2023-03-24T01:17:27.086Z,60.89
2023-03-24T01:19:54.467Z,59.14
2023-03-24T01:22:22.081Z,59.40
2023-03-24T01:24:49.499Z,59.01
2023-03-24T01:27:16.758Z,58.44
2023-03-24T01:29:43.597Z,57.33
2023-03-24T01:32:10.354Z,57.34
2023-03-24T01:34:37.615Z,57.29
2023-03-24T01:37:04.976Z,56.50
2023-03-24T01:39:32.632Z,55.98
2023-03-24T01:41:59.277Z,56.20
2023-03-24T01:44:33.207Z,56.35
2023-03-24T01:47:01.432Z,56.06
2023-03-24T01:49:56.873Z,56.38
2023-03-24T01:52:36.842Z,56.76
2023-03-24T01:55:11.387Z,58.38
2023-03-24T01:57:46.256Z,59.84
2023-03-24T02:00:18.507Z,61.03
2023-03-24T02:02:55.018Z,61.45
2023-03-24T02:05:24.848Z,61.50
2023-03-24T02:08:18.450Z,62.98
2023-03-24T02:10:45.690Z,62.64
2023-03-24T02:13:12.502Z,62.93
2023-03-24T02:15:53.400Z,63.11
2023-03-24T02:18:33.194Z,62.13
2023-03-24T02:21:15.644Z,62.14
2023-03-24T02:23:55.726Z,62.01
2023-03-24T02:26:55.986Z,62.71
2023-03-24T02:29:59.243Z,62.85
2023-03-24T02:32:51.119Z,62.93
2023-03-24T02:35:42.346Z,63.46
2023-03-24T02:38:53.594Z,63.33
2023-03-24T02:41:42.020Z,63.09
2023-03-24T02:44:35.074Z,63.63
2023-03-24T02:47:12.679Z,62.75
2023-03-24T02:49:51.568Z,62.96
2023-03-24T02:52:43.138Z,63.48
2023-03-24T02:55:29.871Z,63.39
2023-03-24T02:58:02.666Z,63.63
2023-03-24T03:00:35.867Z,64.25
2023-03-24T03:03:27.225Z,64.29
2023-03-24T03:06:01.969Z,64.09
2023-03-24T03:08:33.995Z,63.68
2023-03-24T03:11:03.914Z,63.54
2023-03-24T03:13:48.549Z,64.35
2023-03-24T03:16:38.400Z,64.52
2023-03-24T03:19:17.950Z,64.20
2023-03-24T03:21:46.179Z,64.52
2023-03-24T03:24:20.019Z,64.12
2023-03-24T03:26:49.154Z,64.60
2023-03-24T03:29:22.120Z,64.56
2023-03-24T03:32:10.148Z,64.45
2023-03-24T03:34:50.291Z,64.33
2023-03-24T03:37:28.106Z,64.17
2023-03-24T03:40:05.166Z,64.51
2023-03-24T03:42:32.100Z,64.47
2023-03-24T03:44:58.698Z,64.04
2023-03-24T03:47:25.540Z,64.31
2023-03-24T03:49:52.274Z,65.01
2023-03-24T03:52:19.336Z,65.25
2023-03-24T03:54:46.183Z,65.37
2023-03-24T03:57:14.424Z,65.33
2023-03-24T03:59:41.028Z,65.55
2023-03-24T04:02:29.285Z,66.13
2023-03-24T04:05:18.544Z,66.12
2023-03-24T04:08:06.240Z,66.03
2023-03-24T04:10:52.590Z,66.55
2023-03-24T04:13:56.561Z,67.31
2023-03-24T04:16:46.171Z,67.01
2023-03-24T04:19:25.470Z,67.76
2023-03-24T04:22:10.228Z,67.42
2023-03-24T04:25:00.070Z,67.45
2023-03-24T04:27:47.605Z,67.39
2023-03-24T04:30:23.531Z,66.66
2023-03-24T04:32:58.616Z,68.04
2023-03-24T04:35:34.270Z,67.45
2023-03-24T04:38:06.084Z,67.86
2023-03-24T04:40:36.718Z,67.02
2023-03-24T04:43:07.522Z,67.45
2023-03-24T04:45:36.281Z,67.50
2023-03-24T04:48:06.871Z,67.20
2023-03-24T04:50:38.177Z,67.57
2023-03-24T04:53:07.339Z,67.31
2023-03-24T04:55:37.784Z,66.93
2023-03-24T04:58:04.576Z,67.48
2023-03-24T05:00:32.123Z,67.43
2023-03-24T05:02:58.716Z,67.04
2023-03-24T05:05:25.365Z,67.54
2023-03-24T05:07:51.943Z,67.11
2023-03-24T05:10:21.773Z,66.79
2023-03-24T05:12:48.925Z,67.28
2023-03-24T05:15:16.059Z,66.99
2023-03-24T05:17:42.719Z,66.83
2023-03-24T05:20:13.016Z,66.92
2023-03-24T05:22:39.769Z,67.28
2023-03-24T05:25:07.005Z,67.16
2023-03-24T05:27:33.666Z,67.40
2023-03-24T05:30:00.424Z,67.95
2023-03-24T05:32:27.414Z,67.57
2023-03-24T05:34:54.110Z,67.34
2023-03-24T05:37:20.954Z,67.16
2023-03-24T05:39:47.694Z,67.86
2023-03-24T05:42:15.683Z,67.52
2023-03-24T05:44:42.291Z,67.42
2023-03-24T05:47:09.593Z,66.97
2023-03-24T05:49:36.816Z,67.00
2023-03-24T05:52:03.732Z,67.06
2023-03-24T05:54:30.355Z,67.10
2023-03-24T05:56:57.022Z,66.69
2023-03-24T05:59:23.602Z,67.28
2023-03-24T06:01:50.142Z,67.34
2023-03-24T06:04:16.846Z,67.39
2023-03-24T06:06:45.583Z,67.56
2023-03-24T06:09:14.640Z,67.31
2023-03-24T06:11:41.187Z,67.68
2023-03-24T06:14:07.947Z,67.46
2023-03-24T06:16:38.814Z,67.26
2023-03-24T06:19:06.913Z,67.14
2023-03-24T06:21:35.319Z,67.39
2023-03-24T06:24:03.844Z,67.28
2023-03-24T06:26:30.826Z,67.33
2023-03-24T06:28:58.645Z,67.54
2023-03-24T06:31:25.626Z,67.22
2023-03-24T06:33:52.437Z,67.27
2023-03-24T06:36:19.491Z,67.17
2023-03-24T06:38:46.182Z,66.69
2023-03-24T06:41:12.786Z,66.92
2023-03-24T06:43:39.458Z,66.80
2023-03-24T06:46:06.406Z,66.71
2023-03-24T06:48:33.725Z,67.20
2023-03-24T06:51:00.450Z,66.88
2023-03-24T06:53:27.483Z,66.93
2023-03-24T06:55:54.086Z,66.87
2023-03-24T06:58:21.615Z,66.56
2023-03-24T07:00:48.526Z,66.12
2023-03-24T07:03:18.206Z,65.70
2023-03-24T07:05:46.458Z,64.53
2023-03-24T07:13:18.282Z,63.48
2023-03-24T07:15:45.811Z,62.65
2023-03-24T07:18:19.872Z,63.01
2023-03-24T07:20:56.562Z,62.20
2023-03-24T07:23:23.316Z,62.19
2023-03-24T07:25:51.689Z,60.42
2023-03-24T07:28:22.187Z,61.31
2023-03-24T07:30:50.763Z,61.29
2023-03-24T07:33:18.330Z,61.46
2023-03-24T07:35:46.093Z,61.29
2023-03-24T07:38:12.961Z,61.50
2023-03-24T07:40:39.618Z,61.17
2023-03-24T07:43:09.171Z,59.48
2023-03-24T07:45:35.857Z,59.58
2023-03-24T07:48:02.579Z,59.33
2023-03-24T07:50:30.603Z,60.03
2023-03-24T07:52:59.817Z,59.74
2023-03-24T07:55:27.447Z,59.62
2023-03-24T07:57:54.767Z,58.42
2023-03-24T08:00:22.457Z,57.70
2023-03-24T08:02:52.146Z,57.67
2023-03-24T08:05:20.844Z,57.50
2023-03-24T08:07:53.684Z,56.75
2023-03-24T08:10:27.078Z,55.70
2023-03-24T08:12:53.743Z,55.27
2023-03-24T08:15:20.465Z,55.37
2023-03-24T08:20:42.780Z,54.91
2023-03-24T08:23:09.763Z,53.91
2023-03-24T08:25:37.394Z,54.02
2023-03-24T08:28:04.743Z,53.36
2023-03-24T08:30:31.872Z,53.25
2023-03-24T08:33:01.779Z,53.56
2023-03-24T08:35:33.390Z,52.43
2023-03-24T08:38:01.653Z,53.07
2023-03-24T08:40:31.830Z,53.67
2023-03-24T08:43:00.545Z,52.84
2023-03-24T08:45:30.680Z,52.79
2023-03-24T08:47:59.736Z,54.25
2023-03-24T08:50:29.456Z,53.97
2023-03-24T08:52:57.255Z,53.85
2023-03-24T08:55:24.889Z,53.79
2023-03-24T08:57:52.002Z,53.14
2023-03-24T09:00:19.631Z,52.88
2023-03-24T09:02:48.262Z,51.89
2023-03-24T09:05:15.710Z,51.96
2023-03-24T09:07:42.670Z,51.18
2023-03-24T09:10:10.642Z,51.43
2023-03-24T09:12:38.254Z,51.67
2023-03-24T09:15:06.971Z,51.75
2023-03-24T09:17:34.206Z,52.36
2023-03-24T09:20:02.272Z,52.42
2023-03-24T09:22:29.094Z,53.15
2023-03-24T09:24:55.859Z,53.53
2023-03-24T09:27:23.437Z,53.65
2023-03-24T09:29:50.054Z,53.36
2023-03-24T09:32:16.696Z,53.83
2023-03-24T09:34:43.251Z,53.65
2023-03-24T09:37:09.874Z,53.55
2023-03-24T09:39:36.862Z,53.37
2023-03-24T09:42:05.978Z,53.17
2023-03-24T09:44:44.024Z,53.19
2023-03-24T09:47:29.160Z,52.82
2023-03-24T09:50:00.436Z,52.36
2023-03-24T09:52:37.179Z,51.51
2023-03-24T09:55:04.258Z,51.99
2023-03-24T09:57:47.345Z,51.54
2023-03-24T10:00:19.004Z,51.02
2023-03-24T10:02:46.289Z,50.55
2023-03-24T10:05:18.481Z,50.54
2023-03-24T10:07:57.136Z,50.87
2023-03-24T10:11:25.674Z,49.78
2023-03-24T10:14:04.999Z,49.23
2023-03-24T10:16:49.798Z,49.19
2023-03-24T10:19:24.666Z,49.25
2023-03-24T10:22:05.587Z,48.43
2023-03-24T10:25:12.881Z,48.36
2023-03-24T10:27:56.857Z,48.38
2023-03-24T10:30:37.191Z,47.59
2023-03-24T10:33:04.131Z,48.35
2023-03-24T10:35:36.810Z,47.95
2023-03-24T10:38:18.020Z,48.77
2023-03-24T10:40:47.028Z,48.63
2023-03-24T10:43:15.927Z,48.11
2023-03-24T10:45:47.157Z,48.25
2023-03-24T10:48:33.233Z,48.11
2023-03-24T10:51:00.088Z,47.84
2023-03-24T10:53:27.432Z,48.04
2023-03-24T10:55:54.091Z,47.33
2023-03-24T10:58:29.898Z,46.76
2023-03-24T11:00:59.100Z,46.55
2023-03-24T11:03:34.838Z,45.70
2023-03-24T11:06:04.651Z,45.01
2023-03-24T11:08:39.789Z,44.89
2023-03-24T11:11:24.786Z,43.65
2023-03-24T11:14:01.378Z,45.48
2023-03-24T11:16:30.377Z,44.90
2023-03-24T11:19:01.917Z,44.56
2023-03-24T11:21:31.448Z,43.89
2023-03-24T11:24:01.351Z,44.08
2023-03-24T11:26:34.255Z,44.01
2023-03-24T11:29:12.233Z,44.05
2023-03-24T11:31:40.286Z,44.18
2023-03-24T11:34:19.964Z,43.71
2023-03-24T11:36:51.733Z,44.17
2023-03-24T11:39:23.092Z,44.38
2023-03-24T11:42:17.412Z,43.90
2023-03-24T11:44:43.949Z,44.53
2023-03-24T11:47:22.589Z,44.25
2023-03-24T11:49:58.499Z,43.74
2023-03-24T11:52:33.741Z,43.65
2023-03-24T11:55:00.833Z,43.96
2023-03-24T11:57:41.575Z,43.41
2023-03-24T12:00:14.695Z,43.94
2023-03-24T12:03:08.714Z,43.60
2023-03-24T12:05:59.907Z,43.38
2023-03-24T12:08:52.830Z,43.79
2023-03-24T12:14:20.970Z,43.50
2023-03-24T12:17:30.795Z,43.61
2023-03-24T12:20:05.430Z,43.47
2023-03-24T12:22:50.759Z,43.14
2023-03-24T12:25:38.242Z,43.08
2023-03-24T12:28:10.676Z,43.12
2023-03-24T12:31:12.995Z,42.47
2023-03-24T12:34:07.366Z,41.71
2023-03-24T12:36:57.820Z,42.05
2023-03-24T12:39:52.779Z,41.96
2023-03-24T12:42:23.778Z,41.50
2023-03-24T12:45:10.951Z,41.52
2023-03-24T12:48:33.725Z,40.46
2023-03-24T12:51:25.084Z,40.68
2023-03-24T12:54:10.604Z,39.42
2023-03-24T12:57:00.330Z,40.26
2023-03-24T12:59:33.255Z,40.15
2023-03-24T13:02:13.230Z,40.36
2023-03-24T13:04:42.984Z,40.66
2023-03-24T13:07:14.656Z,40.36
2023-03-24T13:09:55.761Z,39.30
2023-03-24T13:12:41.057Z,39.74
2023-03-24T13:15:17.255Z,40.32
2023-03-24T13:17:55.963Z,40.20
2023-03-24T13:20:29.887Z,39.96
2023-03-24T13:22:59.265Z,39.92
2023-03-24T13:25:33.283Z,39.36
2023-03-24T13:28:10.308Z,38.74
2023-03-24T13:30:40.140Z,39.59
2023-03-24T13:33:15.935Z,38.88
2023-03-24T13:36:09.641Z,38.86
2023-03-24T13:38:39.001Z,39.06
2023-03-24T13:41:07.861Z,38.58
2023-03-24T13:43:34.987Z,38.46
2023-03-24T13:46:04.934Z,38.60
2023-03-24T13:48:44.342Z,38.76
2023-03-24T13:51:26.763Z,38.90
2023-03-24T13:53:59.837Z,38.92
2023-03-24T13:56:32.282Z,39.07
2023-03-24T13:58:58.839Z,39.12
2023-03-24T14:01:49.241Z,39.00
2023-03-24T14:04:18.664Z,38.95
2023-03-24T14:06:49.549Z,38.78
2023-03-24T14:09:25.455Z,38.92
2023-03-24T14:11:55.052Z,39.16
2023-03-24T14:14:22.928Z,38.96
2023-03-24T14:17:08.648Z,37.73
2023-03-24T14:20:02.103Z,38.58
2023-03-24T14:22:33.742Z,39.24
2023-03-24T14:25:18.818Z,39.06
2023-03-24T14:27:47.716Z,38.74
2023-03-24T14:30:25.127Z,39.05
2023-03-24T14:33:02.674Z,39.20
2023-03-24T14:35:45.853Z,38.27
2023-03-24T14:38:15.789Z,39.52
2023-03-24T14:40:49.582Z,40.11
2023-03-24T14:43:24.637Z,35.72
2023-03-24T14:45:52.984Z,37.69
2023-03-24T14:48:52.089Z,36.93
2023-03-24T14:51:43.492Z,37.12
2023-03-24T14:54:23.655Z,37.42
2023-03-24T14:56:54.100Z,38.44
2023-03-24T14:59:27.141Z,38.46
2023-03-24T15:02:06.125Z,39.04
2023-03-24T15:04:33.753Z,39.07
2023-03-24T15:07:04.617Z,39.17
2023-03-24T15:09:31.343Z,39.20
2023-03-24T15:12:00.275Z,39.44
2023-03-24T15:14:27.587Z,39.55
2023-03-24T15:16:58.525Z,39.47
2023-03-24T15:19:27.800Z,39.91
2023-03-24T15:21:58.853Z,40.15
2023-03-24T15:24:37.301Z,40.11
2023-03-24T15:27:06.740Z,40.77
2023-03-24T15:29:38.442Z,40.78
2023-03-24T15:32:06.422Z,41.10
2023-03-24T15:34:46.794Z,42.30
2023-03-24T15:37:31.970Z,42.38
2023-03-24T15:40:09.030Z,42.92
2023-03-24T15:42:44.028Z,44.32
2023-03-24T15:45:23.922Z,44.42
2023-03-24T15:47:53.644Z,44.67
2023-03-24T15:50:32.372Z,46.33
2023-03-24T15:53:30.194Z,47.81
2023-03-24T15:56:12.037Z,47.06
2023-03-24T15:58:57.166Z,47.23
2023-03-24T16:01:36.180Z,47.90
2023-03-24T16:04:08.036Z,49.17
2023-03-24T16:06:35.953Z,48.72
2023-03-24T16:09:09.560Z,49.75
2023-03-24T16:11:36.289Z,50.52
2023-03-24T16:14:15.506Z,51.48
2023-03-24T16:16:44.256Z,51.97
2023-03-24T16:19:11.144Z,52.41
2023-03-24T16:21:37.767Z,55.25
2023-03-24T16:24:04.620Z,54.49
2023-03-24T16:26:32.819Z,55.02
2023-03-24T16:29:16.318Z,56.00
2023-03-24T16:31:44.273Z,56.52
2023-03-24T16:34:11.046Z,57.13
2023-03-24T16:36:37.684Z,57.45
2023-03-24T16:39:15.891Z,62.27
2023-03-24T16:41:42.813Z,59.75
2023-03-24T16:44:09.481Z,60.26
2023-03-24T16:46:37.218Z,61.03
2023-03-24T16:49:07.075Z,62.04
2023-03-24T16:51:34.610Z,61.71
2023-03-24T16:54:01.428Z,64.07
2023-03-24T16:56:28.111Z,63.37
2023-03-24T16:58:56.343Z,65.28
2023-03-24T17:01:34.680Z,70.03
2023-03-24T17:04:10.380Z,66.37
2023-03-24T17:06:41.074Z,67.08
2023-03-24T17:09:08.546Z,67.73
2023-03-24T17:11:37.562Z,67.13
2023-03-24T17:14:05.906Z,67.60
2023-03-24T17:16:36.735Z,67.93
2023-03-24T17:19:05.516Z,68.29
2023-03-24T17:21:38.516Z,69.12
2023-03-24T17:24:10.610Z,69.38
2023-03-24T17:26:38.338Z,68.74
2023-03-24T17:29:04.932Z,69.24
2023-03-24T17:31:32.122Z,70.02
2023-03-24T17:34:00.332Z,69.47
2023-03-24T17:36:30.712Z,70.83
2023-03-24T17:38:57.258Z,69.74
2023-03-24T17:41:23.837Z,69.08
2023-03-24T17:43:50.593Z,68.96
2023-03-24T17:46:17.281Z,68.71
2023-03-24T17:48:46.267Z,69.21
2023-03-24T17:51:13.886Z,68.96
2023-03-24T17:53:40.442Z,69.18
2023-03-24T17:56:07.851Z,68.68
2023-03-24T17:58:35.795Z,69.04
2023-03-24T18:01:08.672Z,69.54
2023-03-24T18:03:38.170Z,68.87
2023-03-24T18:06:07.622Z,69.97
2023-03-24T18:08:34.969Z,69.64
2023-03-24T18:11:10.378Z,70.06
2023-03-24T18:13:37.440Z,70.39
2023-03-24T18:16:19.991Z,70.00
2023-03-24T18:18:49.088Z,70.61
2023-03-24T18:21:15.715Z,71.24
2023-03-24T18:23:42.335Z,70.28
2023-03-24T18:26:09.379Z,71.93
2023-03-24T18:28:37.907Z,72.99
2023-03-24T18:31:16.592Z,73.08
2023-03-24T18:33:46.114Z,74.80
2023-03-24T18:36:16.585Z,74.13
2023-03-24T18:38:43.679Z,74.29
2023-03-24T18:41:12.931Z,77.71
2023-03-24T18:43:46.991Z,77.61
2023-03-24T18:46:13.682Z,76.50
2023-03-24T18:48:42.241Z,77.53
2023-03-24T18:51:08.861Z,77.10
2023-03-24T18:53:35.518Z,77.07
2023-03-24T18:56:03.961Z,76.86
2023-03-24T18:58:30.837Z,77.76
2023-03-24T19:00:58.482Z,76.86
2023-03-24T19:03:26.303Z,76.72
2023-03-24T19:05:55.812Z,78.53
2023-03-24T19:08:22.444Z,78.53
2023-03-24T19:10:49.339Z,77.65
2023-03-24T19:13:16.930Z,75.72
2023-03-24T19:15:47.437Z,75.39
2023-03-24T19:18:14.526Z,74.37
2023-03-24T19:20:42.098Z,74.48
2023-03-24T19:23:08.904Z,73.39
2023-03-24T19:25:35.468Z,72.97
2023-03-24T19:28:02.039Z,72.33
2023-03-24T19:30:29.503Z,72.01
2023-03-24T19:32:56.924Z,71.71
2023-03-24T19:35:23.795Z,71.81
2023-03-24T19:37:50.633Z,72.48
2023-03-24T19:40:17.623Z,72.34
2023-03-24T19:42:45.136Z,72.42
2023-03-24T19:45:14.459Z,72.48
2023-03-24T19:47:41.558Z,73.27
2023-03-24T19:50:09.718Z,74.45
2023-03-24T19:52:36.396Z,74.12
2023-03-24T19:55:03.493Z,74.98
2023-03-24T19:57:31.819Z,74.61
2023-03-24T19:59:58.767Z,74.49
2023-03-24T20:02:25.950Z,75.42
2023-03-24T20:04:55.205Z,75.07
2023-03-24T20:07:23.376Z,75.48
2023-03-24T20:09:49.995Z,75.40
2023-03-24T20:12:16.688Z,75.55
2023-03-24T20:14:43.313Z,75.43
2023-03-24T20:17:17.703Z,76.14
2023-03-24T20:19:45.264Z,75.64
2023-03-24T20:22:12.206Z,75.42
2023-03-24T20:24:38.931Z,75.15
2023-03-24T20:27:07.248Z,75.12
2023-03-24T20:29:34.317Z,75.77
2023-03-24T20:32:00.916Z,74.81
2023-03-24T20:34:27.916Z,74.89
2023-03-24T20:36:54.516Z,75.41
2023-03-24T20:39:21.164Z,74.67
2023-03-24T20:41:47.688Z,75.27
2023-03-24T20:44:14.289Z,75.32
2023-03-24T20:46:40.896Z,75.54
2023-03-24T20:49:08.709Z,75.51
2023-03-24T20:51:35.313Z,75.49
2023-03-24T20:54:02.044Z,75.88
2023-03-24T20:56:28.687Z,75.69
2023-03-24T20:58:55.374Z,76.00
2023-03-24T21:01:22.858Z,77.44
2023-03-24T21:03:51.310Z,77.05
2023-03-24T21:06:20.072Z,78.53
2023-03-24T21:08:47.695Z,79.88
2023-03-24T21:11:14.542Z,79.37
2023-03-24T21:13:41.272Z,79.59
2023-03-24T21:16:10.055Z,79.13
2023-03-24T21:18:38.276Z,79.39
2023-03-24T21:21:05.901Z,79.00
2023-03-24T21:23:34.430Z,77.99
2023-03-24T21:26:02.152Z,79.03
2023-03-24T21:28:30.995Z,78.07
2023-03-24T21:30:58.624Z,78.11
2023-03-24T21:33:25.528Z,78.00
2023-03-24T21:35:55.587Z,78.22
2023-03-24T21:38:22.456Z,78.53
2023-03-24T21:40:57.538Z,78.28
2023-03-24T21:43:27.149Z,78.96
2023-03-24T21:45:54.589Z,77.93
2023-03-24T21:48:21.988Z,78.09
2023-03-24T21:50:53.236Z,78.50
2023-03-24T21:53:21.111Z,78.34
2023-03-24T21:55:52.839Z,78.41
2023-03-24T21:58:19.942Z,78.47
2023-03-24T22:00:48.296Z,78.08
2023-03-24T22:03:15.777Z,77.84
2023-03-24T22:05:43.079Z,78.50
2023-03-24T22:08:10.475Z,78.66
2023-03-24T22:10:37.060Z,78.42
2023-03-24T22:13:04.476Z,77.80
2023-03-24T22:15:33.014Z,77.53
2023-03-24T22:18:00.686Z,77.93
2023-03-24T22:20:31.997Z,78.46
2023-03-24T22:23:03.326Z,77.99
2023-03-24T22:25:30.328Z,77.72
2023-03-24T22:27:56.867Z,78.69
2023-03-24T22:30:23.549Z,78.30
2023-03-24T22:32:50.394Z,79.11
2023-03-24T22:35:17.136Z,78.03
2023-03-24T22:37:43.795Z,77.93
2023-03-24T22:40:10.591Z,78.02
2023-03-24T22:42:37.272Z,77.85
2023-03-24T22:45:04.343Z,78.43
2023-03-24T22:47:31.024Z,78.38
2023-03-24T22:49:57.580Z,78.77
2023-03-24T22:52:24.223Z,79.19
2023-03-24T22:54:50.856Z,78.83
2023-03-24T22:57:18.850Z,78.59
2023-03-24T22:59:45.816Z,78.80
2023-03-24T23:02:12.437Z,77.97
2023-03-24T23:04:40.640Z,77.54
2023-03-24T23:07:07.747Z,77.70
2023-03-24T23:09:34.702Z,77.96
2023-03-24T23:12:01.515Z,78.69
2023-03-24T23:14:28.112Z,80.56
2023-03-24T23:16:56.228Z,80.39
2023-03-24T23:19:23.320Z,79.93
2023-03-24T23:21:50.052Z,77.55
2023-03-24T23:24:17.074Z,78.65
2023-03-24T23:26:43.742Z,79.79
2023-03-24T23:29:10.441Z,79.86
2023-03-24T23:31:37.170Z,78.84
2023-03-24T23:34:07.453Z,78.65
2023-03-24T23:36:34.299Z,77.17
2023-03-24T23:39:01.134Z,76.77
2023-03-24T23:41:27.776Z,75.75
2023-03-24T23:43:55.173Z,75.16
2023-03-24T23:46:24.007Z,75.26
2023-03-24T23:48:50.933Z,74.46
2023-03-24T23:51:17.619Z,74.98
2023-03-24T23:53:44.237Z,75.32
2023-03-24T23:56:14.223Z,75.16
2023-03-24T23:58:42.673Z,75.82
